sensor_id;sensor_type;location;lat;lon;timestamp;P1;durP1;ratioP1;P2;durP2;ratioP2
75589;SDS011;64169;47.240;11.312;2023-05-07T00:01:03;4.95;;;2.00;;
75589;SDS011;64169;47.240;11.312;2023-05-07T00:03:30;4.38;;;1.67;;
75589;SDS011;64169;47.240;11.312;2023-05-07T00:05:56;5.53;;;2.20;;
75589;SDS011;64169;47.240;11.312;2023-05-07T00:08:21;5.47;;;2.22;;
75589;SDS011;64169;47.240;11.312;2023-05-07T00:10:47;4.88;;;1.83;;
75589;SDS011;64169;47.240;11.312;2023-05-07T00:13:12;4.80;;;2.00;;
75589;SDS011;64169;47.240;11.312;2023-05-07T00:15:38;4.78;;;2.00;;
75589;SDS011;64169;47.240;11.312;2023-05-07T00:18:03;4.53;;;1.70;;
75589;SDS011;64169;47.240;11.312;2023-05-07T00:20:29;4.15;;;1.75;;
75589;SDS011;64169;47.240;11.312;2023-05-07T00:22:54;4.78;;;2.20;;
75589;SDS011;64169;47.240;11.312;2023-05-07T00:25:20;5.20;;;1.70;;
75589;SDS011;64169;47.240;11.312;2023-05-07T00:27:45;5.95;;;1.92;;
75589;SDS011;64169;47.240;11.312;2023-05-07T00:30:11;5.85;;;1.90;;
75589;SDS011;64169;47.240;11.312;2023-05-07T00:32:37;4.45;;;1.60;;
75589;SDS011;64169;47.240;11.312;2023-05-07T00:35:03;4.28;;;1.55;;
75589;SDS011;64169;47.240;11.312;2023-05-07T00:37:29;4.30;;;1.70;;
75589;SDS011;64169;47.240;11.312;2023-05-07T00:39:55;4.38;;;1.75;;
75589;SDS011;64169;47.240;11.312;2023-05-07T00:42:20;4.60;;;1.63;;
75589;SDS011;64169;47.240;11.312;2023-05-07T00:44:46;10.77;;;1.90;;
75589;SDS011;64169;47.240;11.312;2023-05-07T00:47:11;4.57;;;1.80;;
75589;SDS011;64169;47.240;11.312;2023-05-07T00:49:44;5.32;;;1.80;;
75589;SDS011;64169;47.240;11.312;2023-05-07T00:52:13;5.75;;;1.88;;
75589;SDS011;64169;47.240;11.312;2023-05-07T00:54:40;5.32;;;1.63;;
75589;SDS011;64169;47.240;11.312;2023-05-07T00:57:06;9.00;;;2.22;;
75589;SDS011;64169;47.240;11.312;2023-05-07T00:59:34;5.57;;;2.15;;
75589;SDS011;64169;47.240;11.312;2023-05-07T01:02:00;4.55;;;1.63;;
75589;SDS011;64169;47.240;11.312;2023-05-07T01:04:25;6.20;;;1.90;;
75589;SDS011;64169;47.240;11.312;2023-05-07T01:06:51;5.28;;;1.95;;
75589;SDS011;64169;47.240;11.312;2023-05-07T01:09:18;4.65;;;1.50;;
75589;SDS011;64169;47.240;11.312;2023-05-07T01:11:45;7.38;;;1.80;;
75589;SDS011;64169;47.240;11.312;2023-05-07T01:14:10;4.68;;;1.92;;
75589;SDS011;64169;47.240;11.312;2023-05-07T01:16:36;5.40;;;1.73;;
75589;SDS011;64169;47.240;11.312;2023-05-07T01:19:02;4.18;;;1.75;;
75589;SDS011;64169;47.240;11.312;2023-05-07T01:21:27;4.55;;;1.67;;
75589;SDS011;64169;47.240;11.312;2023-05-07T01:23:57;6.15;;;2.60;;
75589;SDS011;64169;47.240;11.312;2023-05-07T01:26:23;14.68;;;8.55;;
75589;SDS011;64169;47.240;11.312;2023-05-07T01:28:49;5.00;;;2.20;;
75589;SDS011;64169;47.240;11.312;2023-05-07T01:31:14;6.57;;;2.55;;
75589;SDS011;64169;47.240;11.312;2023-05-07T01:33:41;4.70;;;1.80;;
75589;SDS011;64169;47.240;11.312;2023-05-07T01:36:09;5.32;;;1.90;;
75589;SDS011;64169;47.240;11.312;2023-05-07T01:38:36;4.45;;;1.58;;
75589;SDS011;64169;47.240;11.312;2023-05-07T01:41:02;5.15;;;2.10;;
75589;SDS011;64169;47.240;11.312;2023-05-07T01:43:28;4.60;;;2.10;;
75589;SDS011;64169;47.240;11.312;2023-05-07T01:45:55;4.68;;;1.73;;
75589;SDS011;64169;47.240;11.312;2023-05-07T01:48:21;5.15;;;1.83;;
75589;SDS011;64169;47.240;11.312;2023-05-07T01:50:47;5.57;;;2.03;;
75589;SDS011;64169;47.240;11.312;2023-05-07T01:53:13;5.05;;;1.90;;
75589;SDS011;64169;47.240;11.312;2023-05-07T01:55:38;5.10;;;2.03;;
75589;SDS011;64169;47.240;11.312;2023-05-07T01:58:05;4.63;;;1.85;;
75589;SDS011;64169;47.240;11.312;2023-05-07T02:00:30;5.80;;;2.00;;
75589;SDS011;64169;47.240;11.312;2023-05-07T02:02:56;5.18;;;2.10;;
75589;SDS011;64169;47.240;11.312;2023-05-07T02:05:22;6.25;;;1.90;;
75589;SDS011;64169;47.240;11.312;2023-05-07T02:07:48;4.97;;;1.67;;
75589;SDS011;64169;47.240;11.312;2023-05-07T02:10:13;6.70;;;2.10;;
75589;SDS011;64169;47.240;11.312;2023-05-07T02:12:39;6.32;;;2.00;;
75589;SDS011;64169;47.240;11.312;2023-05-07T02:15:04;4.95;;;1.73;;
75589;SDS011;64169;47.240;11.312;2023-05-07T02:17:30;4.20;;;1.55;;
75589;SDS011;64169;47.240;11.312;2023-05-07T02:19:58;4.40;;;1.58;;
75589;SDS011;64169;47.240;11.312;2023-05-07T02:22:23;5.05;;;1.80;;
75589;SDS011;64169;47.240;11.312;2023-05-07T02:24:49;4.30;;;1.67;;
75589;SDS011;64169;47.240;11.312;2023-05-07T02:27:14;6.63;;;1.65;;
75589;SDS011;64169;47.240;11.312;2023-05-07T02:29:40;4.55;;;2.20;;
75589;SDS011;64169;47.240;11.312;2023-05-07T02:32:05;3.58;;;1.40;;
75589;SDS011;64169;47.240;11.312;2023-05-07T02:34:31;5.10;;;2.25;;
75589;SDS011;64169;47.240;11.312;2023-05-07T02:36:56;4.53;;;1.75;;
75589;SDS011;64169;47.240;11.312;2023-05-07T02:39:22;4.30;;;2.00;;
75589;SDS011;64169;47.240;11.312;2023-05-07T02:41:47;5.85;;;1.70;;
75589;SDS011;64169;47.240;11.312;2023-05-07T02:44:12;4.97;;;1.92;;
75589;SDS011;64169;47.240;11.312;2023-05-07T02:46:38;9.23;;;2.53;;
75589;SDS011;64169;47.240;11.312;2023-05-07T02:49:03;5.20;;;1.90;;
75589;SDS011;64169;47.240;11.312;2023-05-07T02:51:29;4.63;;;1.80;;
75589;SDS011;64169;47.240;11.312;2023-05-07T02:53:55;6.45;;;2.20;;
75589;SDS011;64169;47.240;11.312;2023-05-07T02:56:21;6.30;;;2.20;;
75589;SDS011;64169;47.240;11.312;2023-05-07T02:58:46;5.53;;;2.00;;
75589;SDS011;64169;47.240;11.312;2023-05-07T03:01:12;6.43;;;2.15;;
75589;SDS011;64169;47.240;11.312;2023-05-07T03:03:39;4.88;;;1.90;;
75589;SDS011;64169;47.240;11.312;2023-05-07T03:06:05;6.22;;;2.10;;
75589;SDS011;64169;47.240;11.312;2023-05-07T03:08:31;5.75;;;1.73;;
75589;SDS011;64169;47.240;11.312;2023-05-07T03:10:57;5.43;;;1.95;;
75589;SDS011;64169;47.240;11.312;2023-05-07T03:13:22;4.90;;;2.10;;
75589;SDS011;64169;47.240;11.312;2023-05-07T03:15:48;5.03;;;2.30;;
75589;SDS011;64169;47.240;11.312;2023-05-07T03:18:13;5.35;;;2.05;;
75589;SDS011;64169;47.240;11.312;2023-05-07T03:20:39;5.00;;;1.83;;
75589;SDS011;64169;47.240;11.312;2023-05-07T03:23:04;6.10;;;1.90;;
75589;SDS011;64169;47.240;11.312;2023-05-07T03:25:30;4.15;;;1.85;;
75589;SDS011;64169;47.240;11.312;2023-05-07T03:27:55;4.78;;;1.98;;
75589;SDS011;64169;47.240;11.312;2023-05-07T03:30:21;4.60;;;1.63;;
75589;SDS011;64169;47.240;11.312;2023-05-07T03:32:47;5.22;;;1.80;;
75589;SDS011;64169;47.240;11.312;2023-05-07T03:35:12;4.80;;;1.83;;
75589;SDS011;64169;47.240;11.312;2023-05-07T03:37:38;5.22;;;1.85;;
75589;SDS011;64169;47.240;11.312;2023-05-07T03:40:04;4.05;;;1.60;;
75589;SDS011;64169;47.240;11.312;2023-05-07T03:42:30;5.30;;;2.00;;
75589;SDS011;64169;47.240;11.312;2023-05-07T03:44:56;6.30;;;2.10;;
75589;SDS011;64169;47.240;11.312;2023-05-07T03:47:21;4.93;;;2.00;;
75589;SDS011;64169;47.240;11.312;2023-05-07T03:49:46;5.85;;;1.80;;
75589;SDS011;64169;47.240;11.312;2023-05-07T03:52:13;4.70;;;1.77;;
75589;SDS011;64169;47.240;11.312;2023-05-07T03:54:39;5.63;;;2.15;;
75589;SDS011;64169;47.240;11.312;2023-05-07T03:57:05;4.85;;;1.90;;
75589;SDS011;64169;47.240;11.312;2023-05-07T03:59:30;4.30;;;1.77;;
75589;SDS011;64169;47.240;11.312;2023-05-07T04:01:55;3.95;;;1.60;;
75589;SDS011;64169;47.240;11.312;2023-05-07T04:04:21;4.50;;;1.92;;
75589;SDS011;64169;47.240;11.312;2023-05-07T04:06:46;5.55;;;2.03;;
75589;SDS011;64169;47.240;11.312;2023-05-07T04:09:12;6.13;;;2.28;;
75589;SDS011;64169;47.240;11.312;2023-05-07T04:11:37;5.07;;;2.10;;
75589;SDS011;64169;47.240;11.312;2023-05-07T04:14:05;6.35;;;2.42;;
75589;SDS011;64169;47.240;11.312;2023-05-07T04:16:30;4.80;;;2.03;;
75589;SDS011;64169;47.240;11.312;2023-05-07T04:18:56;4.63;;;2.13;;
75589;SDS011;64169;47.240;11.312;2023-05-07T04:21:21;4.88;;;2.13;;
75589;SDS011;64169;47.240;11.312;2023-05-07T04:23:47;5.15;;;2.10;;
75589;SDS011;64169;47.240;11.312;2023-05-07T04:26:13;5.80;;;2.17;;
75589;SDS011;64169;47.240;11.312;2023-05-07T04:28:39;5.38;;;2.35;;
75589;SDS011;64169;47.240;11.312;2023-05-07T04:31:05;5.55;;;2.42;;
75589;SDS011;64169;47.240;11.312;2023-05-07T04:33:31;10.80;;;2.67;;
75589;SDS011;64169;47.240;11.312;2023-05-07T04:35:57;5.07;;;2.10;;
75589;SDS011;64169;47.240;11.312;2023-05-07T04:38:23;4.93;;;2.22;;
75589;SDS011;64169;47.240;11.312;2023-05-07T04:40:49;6.20;;;2.60;;
75589;SDS011;64169;47.240;11.312;2023-05-07T04:43:14;5.88;;;2.97;;
75589;SDS011;64169;47.240;11.312;2023-05-07T04:45:41;7.32;;;2.75;;
75589;SDS011;64169;47.240;11.312;2023-05-07T04:48:06;5.55;;;2.42;;
75589;SDS011;64169;47.240;11.312;2023-05-07T04:50:32;5.25;;;2.17;;
75589;SDS011;64169;47.240;11.312;2023-05-07T04:52:58;5.38;;;2.35;;
75589;SDS011;64169;47.240;11.312;2023-05-07T04:55:23;5.65;;;2.25;;
75589;SDS011;64169;47.240;11.312;2023-05-07T04:57:48;6.45;;;2.38;;
75589;SDS011;64169;47.240;11.312;2023-05-07T05:00:14;7.20;;;2.60;;
75589;SDS011;64169;47.240;11.312;2023-05-07T05:02:40;5.03;;;2.20;;
75589;SDS011;64169;47.240;11.312;2023-05-07T05:05:06;5.97;;;2.42;;
75589;SDS011;64169;47.240;11.312;2023-05-07T05:07:33;5.25;;;2.35;;
75589;SDS011;64169;47.240;11.312;2023-05-07T05:09:58;5.95;;;2.47;;
75589;SDS011;64169;47.240;11.312;2023-05-07T05:12:24;6.13;;;2.30;;
75589;SDS011;64169;47.240;11.312;2023-05-07T05:14:49;6.88;;;2.90;;
75589;SDS011;64169;47.240;11.312;2023-05-07T05:17:15;6.63;;;2.72;;
75589;SDS011;64169;47.240;11.312;2023-05-07T05:19:40;7.35;;;2.90;;
75589;SDS011;64169;47.240;11.312;2023-05-07T05:22:06;5.55;;;2.22;;
75589;SDS011;64169;47.240;11.312;2023-05-07T05:24:31;6.40;;;2.92;;
75589;SDS011;64169;47.240;11.312;2023-05-07T05:26:57;5.70;;;2.53;;
75589;SDS011;64169;47.240;11.312;2023-05-07T05:29:24;6.60;;;2.70;;
75589;SDS011;64169;47.240;11.312;2023-05-07T05:31:50;5.55;;;2.58;;
75589;SDS011;64169;47.240;11.312;2023-05-07T05:34:15;5.18;;;2.40;;
75589;SDS011;64169;47.240;11.312;2023-05-07T05:36:42;5.90;;;2.55;;
75589;SDS011;64169;47.240;11.312;2023-05-07T05:39:07;6.43;;;2.45;;
75589;SDS011;64169;47.240;11.312;2023-05-07T05:41:33;8.50;;;3.38;;
75589;SDS011;64169;47.240;11.312;2023-05-07T05:43:59;5.90;;;2.80;;
75589;SDS011;64169;47.240;11.312;2023-05-07T05:46:24;8.45;;;2.83;;
75589;SDS011;64169;47.240;11.312;2023-05-07T05:48:49;5.75;;;2.60;;
75589;SDS011;64169;47.240;11.312;2023-05-07T05:51:15;7.00;;;2.53;;
75589;SDS011;64169;47.240;11.312;2023-05-07T05:53:40;5.38;;;2.55;;
75589;SDS011;64169;47.240;11.312;2023-05-07T05:56:06;4.93;;;2.17;;
75589;SDS011;64169;47.240;11.312;2023-05-07T05:58:31;6.75;;;3.08;;
75589;SDS011;64169;47.240;11.312;2023-05-07T06:00:57;5.47;;;2.60;;
75589;SDS011;64169;47.240;11.312;2023-05-07T06:03:23;7.68;;;2.50;;
75589;SDS011;64169;47.240;11.312;2023-05-07T06:05:48;8.52;;;2.92;;
75589;SDS011;64169;47.240;11.312;2023-05-07T06:08:14;6.10;;;2.58;;
75589;SDS011;64169;47.240;11.312;2023-05-07T06:10:39;6.60;;;3.22;;
75589;SDS011;64169;47.240;11.312;2023-05-07T06:13:05;7.10;;;2.75;;
75589;SDS011;64169;47.240;11.312;2023-05-07T06:15:30;6.05;;;2.83;;
75589;SDS011;64169;47.240;11.312;2023-05-07T06:17:55;5.60;;;2.33;;
75589;SDS011;64169;47.240;11.312;2023-05-07T06:20:22;5.63;;;2.60;;
75589;SDS011;64169;47.240;11.312;2023-05-07T06:22:48;5.43;;;2.53;;
75589;SDS011;64169;47.240;11.312;2023-05-07T06:25:13;7.20;;;3.30;;
75589;SDS011;64169;47.240;11.312;2023-05-07T06:27:39;6.47;;;3.03;;
75589;SDS011;64169;47.240;11.312;2023-05-07T06:30:05;5.47;;;2.22;;
75589;SDS011;64169;47.240;11.312;2023-05-07T06:32:31;7.07;;;3.00;;
75589;SDS011;64169;47.240;11.312;2023-05-07T06:34:56;5.70;;;2.65;;
75589;SDS011;64169;47.240;11.312;2023-05-07T06:37:22;5.35;;;1.95;;
75589;SDS011;64169;47.240;11.312;2023-05-07T06:39:47;5.50;;;2.35;;
75589;SDS011;64169;47.240;11.312;2023-05-07T06:42:13;5.32;;;2.30;;
75589;SDS011;64169;47.240;11.312;2023-05-07T06:44:38;7.65;;;2.25;;
75589;SDS011;64169;47.240;11.312;2023-05-07T06:47:03;5.15;;;2.40;;
75589;SDS011;64169;47.240;11.312;2023-05-07T06:49:30;6.32;;;2.90;;
75589;SDS011;64169;47.240;11.312;2023-05-07T06:51:56;5.78;;;2.25;;
75589;SDS011;64169;47.240;11.312;2023-05-07T06:54:22;4.47;;;1.80;;
75589;SDS011;64169;47.240;11.312;2023-05-07T06:56:47;4.88;;;1.95;;
75589;SDS011;64169;47.240;11.312;2023-05-07T06:59:13;5.13;;;2.03;;
75589;SDS011;64169;47.240;11.312;2023-05-07T07:01:38;4.35;;;1.90;;
75589;SDS011;64169;47.240;11.312;2023-05-07T07:04:04;5.93;;;1.88;;
75589;SDS011;64169;47.240;11.312;2023-05-07T07:06:29;5.28;;;2.00;;
75589;SDS011;64169;47.240;11.312;2023-05-07T07:08:56;5.45;;;1.73;;
75589;SDS011;64169;47.240;11.312;2023-05-07T07:11:22;5.80;;;1.63;;
75589;SDS011;64169;47.240;11.312;2023-05-07T07:13:48;4.50;;;1.60;;
75589;SDS011;64169;47.240;11.312;2023-05-07T07:16:13;5.82;;;1.75;;
75589;SDS011;64169;47.240;11.312;2023-05-07T07:18:38;4.93;;;1.60;;
75589;SDS011;64169;47.240;11.312;2023-05-07T07:21:04;4.63;;;2.08;;
75589;SDS011;64169;47.240;11.312;2023-05-07T07:23:30;5.28;;;2.35;;
75589;SDS011;64169;47.240;11.312;2023-05-07T07:25:55;6.40;;;2.13;;
75589;SDS011;64169;47.240;11.312;2023-05-07T07:28:21;4.97;;;2.08;;
75589;SDS011;64169;47.240;11.312;2023-05-07T07:30:46;5.55;;;2.35;;
75589;SDS011;64169;47.240;11.312;2023-05-07T07:33:12;4.60;;;1.60;;
75589;SDS011;64169;47.240;11.312;2023-05-07T07:35:37;4.88;;;1.98;;
75589;SDS011;64169;47.240;11.312;2023-05-07T07:38:03;4.78;;;1.73;;
75589;SDS011;64169;47.240;11.312;2023-05-07T07:40:28;4.25;;;1.83;;
75589;SDS011;64169;47.240;11.312;2023-05-07T07:42:54;5.32;;;1.90;;
75589;SDS011;64169;47.240;11.312;2023-05-07T07:45:19;5.65;;;1.95;;
75589;SDS011;64169;47.240;11.312;2023-05-07T07:47:45;5.75;;;1.98;;
75589;SDS011;64169;47.240;11.312;2023-05-07T07:50:11;5.10;;;1.80;;
75589;SDS011;64169;47.240;11.312;2023-05-07T07:52:36;5.68;;;1.70;;
75589;SDS011;64169;47.240;11.312;2023-05-07T07:55:02;5.40;;;1.90;;
75589;SDS011;64169;47.240;11.312;2023-05-07T07:57:28;4.97;;;1.77;;
75589;SDS011;64169;47.240;11.312;2023-05-07T07:59:53;5.45;;;1.80;;
75589;SDS011;64169;47.240;11.312;2023-05-07T08:02:19;4.85;;;2.05;;
75589;SDS011;64169;47.240;11.312;2023-05-07T08:04:45;3.90;;;1.50;;
75589;SDS011;64169;47.240;11.312;2023-05-07T08:07:10;4.82;;;1.40;;
75589;SDS011;64169;47.240;11.312;2023-05-07T08:09:39;5.15;;;2.17;;
75589;SDS011;64169;47.240;11.312;2023-05-07T08:12:05;4.00;;;1.50;;
75589;SDS011;64169;47.240;11.312;2023-05-07T08:14:31;4.30;;;1.45;;
75589;SDS011;64169;47.240;11.312;2023-05-07T08:16:56;4.10;;;1.50;;
75589;SDS011;64169;47.240;11.312;2023-05-07T08:19:22;4.25;;;1.50;;
75589;SDS011;64169;47.240;11.312;2023-05-07T08:21:47;5.00;;;1.75;;
75589;SDS011;64169;47.240;11.312;2023-05-07T08:24:16;4.47;;;1.50;;
75589;SDS011;64169;47.240;11.312;2023-05-07T08:26:42;3.85;;;1.50;;
75589;SDS011;64169;47.240;11.312;2023-05-07T08:29:08;5.38;;;1.58;;
75589;SDS011;64169;47.240;11.312;2023-05-07T08:31:34;3.70;;;1.50;;
75589;SDS011;64169;47.240;11.312;2023-05-07T08:33:59;4.65;;;1.60;;
75589;SDS011;64169;47.240;11.312;2023-05-07T08:36:25;3.50;;;1.45;;
75589;SDS011;64169;47.240;11.312;2023-05-07T08:38:51;3.25;;;1.17;;
75589;SDS011;64169;47.240;11.312;2023-05-07T08:41:16;4.10;;;1.33;;
75589;SDS011;64169;47.240;11.312;2023-05-07T08:43:42;4.40;;;1.50;;
75589;SDS011;64169;47.240;11.312;2023-05-07T08:46:12;3.60;;;1.17;;
75589;SDS011;64169;47.240;11.312;2023-05-07T08:48:43;4.70;;;1.70;;
75589;SDS011;64169;47.240;11.312;2023-05-07T08:51:12;3.58;;;1.52;;
75589;SDS011;64169;47.240;11.312;2023-05-07T08:53:38;3.55;;;1.30;;
75589;SDS011;64169;47.240;11.312;2023-05-07T08:56:05;4.93;;;1.33;;
75589;SDS011;64169;47.240;11.312;2023-05-07T08:58:31;3.72;;;1.20;;
75589;SDS011;64169;47.240;11.312;2023-05-07T09:00:56;4.80;;;1.40;;
75589;SDS011;64169;47.240;11.312;2023-05-07T09:03:22;3.35;;;1.17;;
75589;SDS011;64169;47.240;11.312;2023-05-07T09:05:47;4.60;;;1.35;;
75589;SDS011;64169;47.240;11.312;2023-05-07T09:08:14;5.40;;;1.60;;
75589;SDS011;64169;47.240;11.312;2023-05-07T09:10:40;4.30;;;1.27;;
75589;SDS011;64169;47.240;11.312;2023-05-07T09:13:05;3.13;;;1.13;;
75589;SDS011;64169;47.240;11.312;2023-05-07T09:15:31;4.18;;;1.20;;
75589;SDS011;64169;47.240;11.312;2023-05-07T09:17:59;2.90;;;1.20;;
75589;SDS011;64169;47.240;11.312;2023-05-07T09:20:26;3.85;;;1.45;;
75589;SDS011;64169;47.240;11.312;2023-05-07T09:22:51;4.07;;;1.30;;
75589;SDS011;64169;47.240;11.312;2023-05-07T09:25:20;3.55;;;1.27;;
75589;SDS011;64169;47.240;11.312;2023-05-07T09:27:53;4.07;;;1.50;;
75589;SDS011;64169;47.240;11.312;2023-05-07T09:30:18;3.35;;;1.08;;
75589;SDS011;64169;47.240;11.312;2023-05-07T09:32:44;4.07;;;1.13;;
75589;SDS011;64169;47.240;11.312;2023-05-07T09:35:18;4.20;;;1.10;;
75589;SDS011;64169;47.240;11.312;2023-05-07T09:37:46;3.40;;;1.02;;
75589;SDS011;64169;47.240;11.312;2023-05-07T09:40:21;4.95;;;1.50;;
75589;SDS011;64169;47.240;11.312;2023-05-07T09:42:48;3.45;;;1.20;;
75589;SDS011;64169;47.240;11.312;2023-05-07T09:45:14;3.80;;;1.23;;
75589;SDS011;64169;47.240;11.312;2023-05-07T09:47:41;3.85;;;1.30;;
75589;SDS011;64169;47.240;11.312;2023-05-07T09:50:09;4.03;;;1.30;;
75589;SDS011;64169;47.240;11.312;2023-05-07T09:52:35;3.95;;;1.42;;
75589;SDS011;64169;47.240;11.312;2023-05-07T09:55:02;5.70;;;2.10;;
75589;SDS011;64169;47.240;11.312;2023-05-07T09:57:28;3.30;;;1.30;;
75589;SDS011;64169;47.240;11.312;2023-05-07T09:59:54;3.47;;;1.20;;
75589;SDS011;64169;47.240;11.312;2023-05-07T10:02:21;3.50;;;1.25;;
75589;SDS011;64169;47.240;11.312;2023-05-07T10:04:46;3.55;;;1.10;;
75589;SDS011;64169;47.240;11.312;2023-05-07T10:07:13;5.47;;;1.50;;
75589;SDS011;64169;47.240;11.312;2023-05-07T10:09:39;4.15;;;1.35;;
75589;SDS011;64169;47.240;11.312;2023-05-07T10:12:07;3.80;;;1.00;;
75589;SDS011;64169;47.240;11.312;2023-05-07T10:14:32;3.65;;;1.30;;
75589;SDS011;64169;47.240;11.312;2023-05-07T10:16:58;2.80;;;1.00;;
75589;SDS011;64169;47.240;11.312;2023-05-07T10:19:24;2.75;;;1.10;;
75589;SDS011;64169;47.240;11.312;2023-05-07T10:21:59;3.42;;;1.10;;
75589;SDS011;64169;47.240;11.312;2023-05-07T10:24:35;3.50;;;1.20;;
75589;SDS011;64169;47.240;11.312;2023-05-07T10:27:02;3.33;;;1.13;;
75589;SDS011;64169;47.240;11.312;2023-05-07T10:32:25;3.35;;;1.10;;
75589;SDS011;64169;47.240;11.312;2023-05-07T10:34:59;5.07;;;1.50;;
75589;SDS011;64169;47.240;11.312;2023-05-07T10:37:27;5.03;;;1.33;;
75589;SDS011;64169;47.240;11.312;2023-05-07T10:39:53;4.07;;;1.30;;
75589;SDS011;64169;47.240;11.312;2023-05-07T10:42:18;3.50;;;1.23;;
75589;SDS011;64169;47.240;11.312;2023-05-07T10:44:43;4.07;;;1.45;;
75589;SDS011;64169;47.240;11.312;2023-05-07T10:47:10;4.65;;;1.20;;
75589;SDS011;64169;47.240;11.312;2023-05-07T10:49:46;3.85;;;1.10;;
75589;SDS011;64169;47.240;11.312;2023-05-07T10:52:30;3.45;;;1.20;;
75589;SDS011;64169;47.240;11.312;2023-05-07T10:57:39;2.80;;;1.00;;
75589;SDS011;64169;47.240;11.312;2023-05-07T11:03:07;3.42;;;1.23;;
75589;SDS011;64169;47.240;11.312;2023-05-07T11:05:32;3.75;;;1.27;;
75589;SDS011;64169;47.240;11.312;2023-05-07T11:07:59;3.35;;;1.00;;
75589;SDS011;64169;47.240;11.312;2023-05-07T11:13:17;2.53;;;1.08;;
75589;SDS011;64169;47.240;11.312;2023-05-07T11:15:44;3.47;;;1.20;;
75589;SDS011;64169;47.240;11.312;2023-05-07T11:18:11;3.65;;;1.10;;
75589;SDS011;64169;47.240;11.312;2023-05-07T11:20:54;2.90;;;1.10;;
75589;SDS011;64169;47.240;11.312;2023-05-07T11:26:04;4.20;;;1.20;;
75589;SDS011;64169;47.240;11.312;2023-05-07T11:28:37;4.85;;;1.30;;
75589;SDS011;64169;47.240;11.312;2023-05-07T11:31:03;3.28;;;1.10;;
75589;SDS011;64169;47.240;11.312;2023-05-07T11:33:30;3.22;;;1.00;;
75589;SDS011;64169;47.240;11.312;2023-05-07T11:35:55;3.35;;;1.00;;
75589;SDS011;64169;47.240;11.312;2023-05-07T11:38:22;3.88;;;1.10;;
75589;SDS011;64169;47.240;11.312;2023-05-07T11:40:57;3.38;;;1.00;;
75589;SDS011;64169;47.240;11.312;2023-05-07T11:43:25;3.00;;;1.10;;
75589;SDS011;64169;47.240;11.312;2023-05-07T11:45:51;3.60;;;0.93;;
75589;SDS011;64169;47.240;11.312;2023-05-07T11:48:16;3.03;;;0.82;;
75589;SDS011;64169;47.240;11.312;2023-05-07T11:50:51;2.67;;;1.00;;
75589;SDS011;64169;47.240;11.312;2023-05-07T11:53:18;2.45;;;0.93;;
75589;SDS011;64169;47.240;11.312;2023-05-07T11:55:45;3.97;;;0.90;;
75589;SDS011;64169;47.240;11.312;2023-05-07T11:58:12;5.18;;;0.90;;
75589;SDS011;64169;47.240;11.312;2023-05-07T12:00:37;3.70;;;1.00;;
75589;SDS011;64169;47.240;11.312;2023-05-07T12:03:06;2.60;;;1.08;;
75589;SDS011;64169;47.240;11.312;2023-05-07T12:05:31;1.88;;;0.77;;
75589;SDS011;64169;47.240;11.312;2023-05-07T12:07:57;5.72;;;1.20;;
75589;SDS011;64169;47.240;11.312;2023-05-07T12:10:22;2.55;;;0.98;;
75589;SDS011;64169;47.240;11.312;2023-05-07T12:12:50;3.63;;;1.10;;
75589;SDS011;64169;47.240;11.312;2023-05-07T12:15:22;1.60;;;0.63;;
75589;SDS011;64169;47.240;11.312;2023-05-07T12:17:47;4.18;;;1.02;;
75589;SDS011;64169;47.240;11.312;2023-05-07T12:20:13;3.38;;;1.20;;
75589;SDS011;64169;47.240;11.312;2023-05-07T12:22:40;3.40;;;1.10;;
75589;SDS011;64169;47.240;11.312;2023-05-07T12:25:06;3.55;;;1.00;;
75589;SDS011;64169;47.240;11.312;2023-05-07T12:27:31;2.58;;;0.82;;
75589;SDS011;64169;47.240;11.312;2023-05-07T12:29:57;3.10;;;0.90;;
75589;SDS011;64169;47.240;11.312;2023-05-07T12:32:24;3.20;;;0.80;;
75589;SDS011;64169;47.240;11.312;2023-05-07T12:34:50;2.53;;;0.98;;
75589;SDS011;64169;47.240;11.312;2023-05-07T12:37:15;3.35;;;0.90;;
75589;SDS011;64169;47.240;11.312;2023-05-07T12:39:47;2.83;;;0.82;;
75589;SDS011;64169;47.240;11.312;2023-05-07T12:42:16;3.05;;;0.95;;
75589;SDS011;64169;47.240;11.312;2023-05-07T12:44:45;2.50;;;0.80;;
75589;SDS011;64169;47.240;11.312;2023-05-07T12:47:11;4.10;;;1.00;;
75589;SDS011;64169;47.240;11.312;2023-05-07T12:49:37;3.38;;;1.25;;
75589;SDS011;64169;47.240;11.312;2023-05-07T12:52:04;2.92;;;1.08;;
75589;SDS011;64169;47.240;11.312;2023-05-07T12:54:30;3.38;;;1.08;;
75589;SDS011;64169;47.240;11.312;2023-05-07T12:57:03;3.22;;;1.00;;
75589;SDS011;64169;47.240;11.312;2023-05-07T12:59:34;5.00;;;1.23;;
75589;SDS011;64169;47.240;11.312;2023-05-07T13:02:01;3.45;;;1.10;;
75589;SDS011;64169;47.240;11.312;2023-05-07T13:04:26;2.58;;;1.00;;
75589;SDS011;64169;47.240;11.312;2023-05-07T13:06:52;3.45;;;1.40;;
75589;SDS011;64169;47.240;11.312;2023-05-07T13:09:17;3.88;;;1.20;;
75589;SDS011;64169;47.240;11.312;2023-05-07T13:11:43;3.92;;;1.00;;
75589;SDS011;64169;47.240;11.312;2023-05-07T13:14:08;3.38;;;1.33;;
75589;SDS011;64169;47.240;11.312;2023-05-07T13:16:34;3.42;;;0.93;;
75589;SDS011;64169;47.240;11.312;2023-05-07T13:18:59;4.72;;;1.52;;
75589;SDS011;64169;47.240;11.312;2023-05-07T13:21:24;4.63;;;1.25;;
75589;SDS011;64169;47.240;11.312;2023-05-07T13:23:51;4.22;;;1.40;;
75589;SDS011;64169;47.240;11.312;2023-05-07T13:26:17;3.55;;;1.30;;
75589;SDS011;64169;47.240;11.312;2023-05-07T13:28:42;2.78;;;1.10;;
75589;SDS011;64169;47.240;11.312;2023-05-07T13:31:08;4.47;;;1.30;;
75589;SDS011;64169;47.240;11.312;2023-05-07T13:33:34;3.20;;;0.98;;
75589;SDS011;64169;47.240;11.312;2023-05-07T13:36:00;7.57;;;1.50;;
75589;SDS011;64169;47.240;11.312;2023-05-07T13:38:26;6.38;;;1.33;;
75589;SDS011;64169;47.240;11.312;2023-05-07T13:40:51;3.78;;;1.30;;
75589;SDS011;64169;47.240;11.312;2023-05-07T13:43:16;2.65;;;0.90;;
75589;SDS011;64169;47.240;11.312;2023-05-07T13:45:43;3.65;;;0.90;;
75589;SDS011;64169;47.240;11.312;2023-05-07T13:48:09;4.00;;;1.20;;
75589;SDS011;64169;47.240;11.312;2023-05-07T13:50:35;2.30;;;0.88;;
75589;SDS011;64169;47.240;11.312;2023-05-07T13:53:00;5.45;;;1.42;;
75589;SDS011;64169;47.240;11.312;2023-05-07T13:55:28;3.08;;;1.10;;
75589;SDS011;64169;47.240;11.312;2023-05-07T13:57:54;3.13;;;1.05;;
75589;SDS011;64169;47.240;11.312;2023-05-07T14:00:21;3.80;;;1.20;;
75589;SDS011;64169;47.240;11.312;2023-05-07T14:02:47;3.60;;;1.00;;
75589;SDS011;64169;47.240;11.312;2023-05-07T14:05:12;3.00;;;1.10;;
75589;SDS011;64169;47.240;11.312;2023-05-07T14:07:38;3.17;;;1.20;;
75589;SDS011;64169;47.240;11.312;2023-05-07T14:10:04;3.30;;;0.98;;
75589;SDS011;64169;47.240;11.312;2023-05-07T14:12:30;2.72;;;0.90;;
75589;SDS011;64169;47.240;11.312;2023-05-07T14:14:56;3.00;;;1.00;;
75589;SDS011;64169;47.240;11.312;2023-05-07T14:17:21;3.55;;;1.05;;
75589;SDS011;64169;47.240;11.312;2023-05-07T14:19:48;1.88;;;0.93;;
75589;SDS011;64169;47.240;11.312;2023-05-07T14:22:13;4.47;;;1.10;;
75589;SDS011;64169;47.240;11.312;2023-05-07T14:24:40;5.57;;;1.10;;
75589;SDS011;64169;47.240;11.312;2023-05-07T14:27:05;3.30;;;0.80;;
75589;SDS011;64169;47.240;11.312;2023-05-07T14:29:31;3.50;;;1.08;;
75589;SDS011;64169;47.240;11.312;2023-05-07T14:31:57;4.32;;;1.25;;
75589;SDS011;64169;47.240;11.312;2023-05-07T14:34:22;3.70;;;1.00;;
75589;SDS011;64169;47.240;11.312;2023-05-07T14:36:48;5.28;;;1.20;;
75589;SDS011;64169;47.240;11.312;2023-05-07T14:39:13;3.58;;;0.90;;
75589;SDS011;64169;47.240;11.312;2023-05-07T14:41:38;3.60;;;1.10;;